Halifax (YHZ/CYHZ)

Map

Destinations

Information

Location
Halifax, Nova Scotia, Canada
Local Time
14:03 / 2:03 pm
GMT Time
18:03 / 6:03 pm
Gates
5
No FAA reported delays
METAR CYHZ 191752Z 17013G24KT 8SM FEW005 BKN010 OVC050 14/14 A2936 RMK SF1SC5SC2 BR PRESFR SLP948 DENSITY ALT 1200FT
TAF TAF CYHZ 191741Z 1918/2018 17018G28KT 2SM -RA BR OVC003 TEMPO 1918/1921 6SM -RA BR SCT003 OVC010 BECMG 1918/1920 19020G35KT FM192100 19020G35KT 3/4SM -RA BR OVC002 FM200000 21020G30KT 6SM BR OVC004 FM200200 23018G28KT P6SM OVC020 FM200400 23018G28KT P6SM BKN025 RMK NXT FCST BY 192100Z